Main page
METAR-TAF:

METAR-TAF

Airports :

Turkmenbashi International Airport

Türkmenbaşy, Turkmenistan

latitude: 40-03-48N, longitude: 053-00-26E, elevation: 86 m

Current weather observation

The report was made 24 minutes ago, at 19:00 UTC
Wind 6 kt from the East
Temperature 7°C
Humidity 45%
Pressure 1025 hPa
Visibility 10 km or more
no clouds below 1500 m and no cumulonimbus

METAR: UTAK 171900Z 08006KT CAVOK 07/M04 Q1025 R16R/CLRD70 NOSIG

Time: 00:24 (19:24 UTC)

Forecast

The report was made 2 hours and 54 minutes ago, at 16:30 UTC
Forecast valid from 17 at 18 UTC to 18 at 18 UTC
Wind 16 kt from the East with gusts up to 26 kt
Visibility 10 km or more
no clouds below 1500 m and no cumulonimbus
Temporary
from 17 at 18 UTC to 17 at 24 UTC
Wind 4 kt from variable directions

TAF: UTAK 171630Z 1718/1818 09016G26KT CAVOK 530009 TEMPO 1718/1724 VRB04KT

Weather observations and forecasts of more than 4000 airports (METAR and TAF reports).

The available stations are represented by yellow and red dots on the map.

Hover mouse over dot to see the name of the station.

Then click to see weather observations and forecasts.

To change the map : click on the green buttons with a black cross to zoom in, on the green button with a dash to zoom out, or on the green arrows for adjacent maps.


METAR-TAF: